Bookmark and Share
Track history (hours):
 

Perla Bulker

Last reported at 2012-Dec-17 11:37 UTC. Time now 2014-Apr-19 22:21 UTC.
Position S 24°17' E 153°59'.
Warning: this ship's position is years out of date!

Length 225 m; draft 7.3 m.

Type: Cargo ship. MMSI: 372944009.

NotesDate/timePositionNaut miles runAvg speedWind from/ knotsBaromVisibWave heightAir tempDewpointWater temp
2012-Dec-17 11:37S 24°17' E 153°59'1110.3
2012-Dec-17 10:33S 24°28' E 153°59'1010.3
2012-Dec-17 09:33S 24°38' E 153°59'1010.3
2012-Dec-17 08:33S 24°49' E 153°58'10 9.7
2012-Dec-17 07:33S 24°58' E 153°58'9 9.2
2012-Dec-17 06:32S 25°08' E 153°58'8 8.9
2012-Dec-17 05:36S 25°16' E 153°58'92 9.2
2012-Dec-16 19:33S 26°48' E 153°55'10 9.0
2012-Dec-16 18:28S 26°58' E 153°54'8 9.2
2012-Dec-16 17:33S 27°07' E 153°54'10 9.5
2012-Dec-16 16:32S 27°16' E 153°54'9 9.3
2012-Dec-16 15:33S 27°25' E 153°54'9 8.8
2012-Dec-16 14:33S 27°34' E 153°53'9 8.6
2012-Dec-16 13:33S 27°43' E 153°53'9 8.7
2012-Dec-16 12:33S 27°51' E 153°53'8 8.7
2012-Dec-16 11:35S 27°60' E 153°52'9 8.8
2012-Dec-16 10:34S 28°09' E 153°52'9 8.8
2012-Dec-16 09:33S 28°18' E 153°52'9 8.6
2012-Dec-16 08:34S 28°26' E 153°52'8 8.4
2012-Dec-16 07:33S 28°35' E 153°52'8 8.3
2012-Dec-16 06:34S 28°43' E 153°51'8 8.3
2012-Dec-16 05:38S 28°50' E 153°49'9 8.1
2012-Dec-16 04:33S 28°59' E 153°47'8 8.2
2012-Dec-16 03:33S 29°07' E 153°44'8 8.4
2012-Dec-16 02:33S 29°15' E 153°42'9 8.6
2012-Dec-16 01:33S 29°23' E 153°39'  
2012-Dec-08 09:26S 29°20' E 153°47'3 3.1
2012-Dec-08 08:33S 29°18' E 153°49'3 3.0
2012-Dec-08 07:31S 29°15' E 153°51'3 3.0
2012-Dec-08 06:31S 29°13' E 153°53'3 3.0
2012-Dec-08 05:37S 29°10' E 153°54'3 3.2
2012-Dec-08 04:33S 29°08' E 153°56'3 3.2
2012-Dec-08 03:33S 29°05' E 153°58'3 3.1
2012-Dec-08 02:33S 29°02' E 153°59'3 3.1
2012-Dec-08 01:33S 28°59' E 154°00'3 3.0
2012-Dec-08 00:33S 28°56' E 154°01'3 2.9
2012-Dec-07 23:33S 28°53' E 154°02'3 2.8
2012-Dec-07 22:33S 28°50' E 154°03'3 2.8
2012-Dec-07 21:31S 28°47' E 154°03'3 2.6
2012-Dec-07 20:34S 28°45' E 154°04'8 2.1
2012-Dec-07 16:33S 28°37' E 154°08'2 1.6
2012-Dec-07 15:33S 28°36' E 154°09'2 1.7
2012-Dec-07 14:33S 28°35' E 154°10'2 1.6
2012-Dec-07 13:33S 28°34' E 154°11'1 1.1
2012-Dec-07 12:33S 28°33' E 154°12'  

Dump ship's entire track history

sailing weather and tide predictions

Perla Bulker — 3ELH — position and weather